createdAt,value
2022-09-28T00:01:19.044Z,94405.03
2022-09-28T00:03:50.587Z,94476.69
2022-09-28T00:06:20.324Z,94492.69
2022-09-28T00:08:50.313Z,94480.50
2022-09-28T00:11:20.891Z,94468.25
2022-09-28T00:13:51.757Z,94382.88
2022-09-28T00:16:24.008Z,94463.44
2022-09-28T00:18:53.887Z,94451.13
2022-09-28T00:21:23.744Z,94468.69
2022-09-28T00:24:11.565Z,94466.75
2022-09-28T00:26:41.848Z,94476.06
2022-09-28T00:29:17.514Z,94473.78
2022-09-28T00:31:46.022Z,94439.44
2022-09-28T00:34:16.981Z,94471.59
2022-09-28T00:36:46.910Z,94461.06
2022-09-28T00:39:17.521Z,94454.94
2022-09-28T00:41:46.743Z,94454.84
2022-09-28T00:44:36.707Z,94455.72
2022-09-28T00:47:11.048Z,94461.75
2022-09-28T00:49:43.494Z,94464.91
2022-09-28T00:52:15.741Z,94377.69
2022-09-28T00:54:45.728Z,94449.91
2022-09-28T00:57:15.440Z,94446.88
2022-09-28T00:59:44.297Z,94389.13
2022-09-28T01:02:12.574Z,94462.63
2022-09-28T01:04:42.809Z,94446.94
2022-09-28T01:07:12.747Z,94470.66
2022-09-28T01:09:41.239Z,94474.59
2022-09-28T01:12:09.935Z,94467.06
2022-09-28T01:14:38.459Z,94457.28
2022-09-28T01:17:13.639Z,94455.50
2022-09-28T01:20:11.480Z,94464.78
2022-09-28T01:23:13.181Z,94465.00
2022-09-28T01:25:47.030Z,94467.69
2022-09-28T01:28:19.235Z,94461.97
2022-09-28T01:30:52.549Z,94464.38
2022-09-28T01:33:26.441Z,94462.66
2022-09-28T01:36:00.108Z,94452.59
2022-09-28T01:38:34.603Z,94464.78
2022-09-28T01:41:04.336Z,94465.44
2022-09-28T01:43:38.980Z,94470.56
2022-09-28T01:46:14.148Z,94471.16
2022-09-28T01:48:47.897Z,94465.34
2022-09-28T01:51:21.247Z,94469.19
2022-09-28T01:53:54.114Z,94479.56
2022-09-28T01:56:29.248Z,94477.31
2022-09-28T01:59:04.595Z,94472.91
2022-09-28T02:01:39.234Z,94477.75
2022-09-28T02:04:13.474Z,94475.16
2022-09-28T02:06:49.271Z,94470.81
2022-09-28T02:09:22.469Z,94472.91
2022-09-28T02:11:56.339Z,94494.13
2022-09-28T02:14:27.729Z,94490.38
2022-09-28T02:16:57.712Z,94501.00
2022-09-28T02:19:28.596Z,94513.53
2022-09-28T02:22:02.967Z,94507.72
2022-09-28T02:24:39.080Z,94512.69
2022-09-28T02:27:15.120Z,94497.84
2022-09-28T02:29:44.887Z,94490.66
2022-09-28T02:32:13.177Z,94489.44
2022-09-28T02:34:41.426Z,94472.72
2022-09-28T02:37:10.022Z,94469.22
2022-09-28T02:39:38.187Z,94476.94
2022-09-28T02:42:18.328Z,94476.72
2022-09-28T02:45:02.363Z,94470.44
2022-09-28T02:47:48.137Z,94472.72
2022-09-28T02:50:23.520Z,94419.50
2022-09-28T02:53:23.465Z,94468.34
2022-09-28T02:56:06.520Z,94466.44
2022-09-28T02:58:43.204Z,94463.31
2022-09-28T03:01:24.944Z,94466.00
2022-09-28T03:03:59.225Z,94457.97
2022-09-28T03:06:33.627Z,94460.31
2022-09-28T03:09:07.076Z,94468.56
2022-09-28T03:11:40.895Z,94479.41
2022-09-28T03:14:09.321Z,94479.53
2022-09-28T03:16:39.026Z,94481.19
2022-09-28T03:19:07.244Z,94485.91
2022-09-28T03:21:35.564Z,94493.63
2022-09-28T03:24:06.103Z,94492.34
2022-09-28T03:26:34.734Z,94486.25
2022-09-28T03:29:03.117Z,94493.56
2022-09-28T03:31:31.432Z,94473.81
2022-09-28T03:34:01.083Z,94495.34
2022-09-28T03:36:29.291Z,94500.16
2022-09-28T03:38:59.675Z,94516.06
2022-09-28T03:41:28.933Z,94510.75
2022-09-28T03:43:57.291Z,94510.53
2022-09-28T03:46:25.693Z,94323.19
2022-09-28T03:48:53.939Z,94501.41
2022-09-28T03:51:23.613Z,94507.34
2022-09-28T03:53:51.839Z,94494.94
2022-09-28T03:56:20.141Z,94501.94
2022-09-28T03:58:48.449Z,94503.56
2022-09-28T04:01:18.068Z,94321.66
2022-09-28T04:03:47.173Z,94502.84
2022-09-28T04:06:16.057Z,94438.06
2022-09-28T04:08:45.716Z,94503.13
2022-09-28T04:11:14.005Z,94501.06
2022-09-28T04:13:42.419Z,94518.38
2022-09-28T04:16:12.120Z,94529.53
2022-09-28T04:18:40.963Z,94528.41
2022-09-28T04:21:12.889Z,94531.63
2022-09-28T04:23:41.512Z,94526.72
2022-09-28T04:26:17.790Z,94527.72
2022-09-28T04:29:06.578Z,94518.19
2022-09-28T04:31:40.200Z,94476.41
2022-09-28T04:34:08.579Z,94521.63
2022-09-28T04:36:37.246Z,94517.06
2022-09-28T04:39:05.536Z,94533.47
2022-09-28T04:41:35.420Z,94528.19
2022-09-28T04:44:04.429Z,94438.13
2022-09-28T04:46:33.004Z,94528.88
2022-09-28T04:49:01.394Z,94534.31
2022-09-28T04:51:32.695Z,94534.31
2022-09-28T04:54:01.136Z,94539.25
2022-09-28T04:56:29.463Z,94533.66
2022-09-28T04:58:59.191Z,94537.78
2022-09-28T05:01:27.621Z,94531.66
2022-09-28T05:03:56.364Z,94531.34
2022-09-28T05:06:28.094Z,94529.75
2022-09-28T05:08:57.623Z,94535.69
2022-09-28T05:11:26.035Z,94534.41
2022-09-28T05:13:54.264Z,94529.69
2022-09-28T05:16:25.953Z,94528.00
2022-09-28T05:18:56.643Z,94540.25
2022-09-28T05:21:29.403Z,94541.78
2022-09-28T05:23:58.417Z,94537.06
2022-09-28T05:26:27.105Z,94545.19
2022-09-28T05:28:55.384Z,94556.22
2022-09-28T05:31:27.322Z,94562.88
2022-09-28T05:33:55.729Z,94562.56
2022-09-28T05:36:24.044Z,94565.03
2022-09-28T05:38:52.269Z,94553.03
2022-09-28T05:41:20.565Z,94567.53
2022-09-28T05:43:48.921Z,94528.88
2022-09-28T05:46:18.562Z,94557.22
2022-09-28T05:48:48.406Z,94564.84
2022-09-28T05:51:16.715Z,94561.94
2022-09-28T05:53:44.929Z,94531.31
2022-09-28T05:56:13.364Z,94559.00
2022-09-28T05:58:41.600Z,94561.84
2022-09-28T06:01:09.963Z,94498.38
2022-09-28T06:03:38.259Z,94553.81
2022-09-28T06:06:10.885Z,94521.97
2022-09-28T06:08:44.373Z,94575.63
2022-09-28T06:11:13.469Z,94557.19
2022-09-28T06:13:41.987Z,94562.78
2022-09-28T06:16:16.131Z,94583.13
2022-09-28T06:18:47.602Z,94587.13
2022-09-28T06:21:17.365Z,94581.66
2022-09-28T06:23:49.244Z,94584.22
2022-09-28T06:26:18.485Z,94578.41
2022-09-28T06:28:47.228Z,94575.75
2022-09-28T06:31:16.040Z,94576.75
2022-09-28T06:33:44.618Z,94574.38
2022-09-28T06:36:13.546Z,94579.75
2022-09-28T06:38:43.377Z,94549.69
2022-09-28T06:41:12.911Z,94568.59
2022-09-28T06:43:41.230Z,94572.72
2022-09-28T06:46:10.603Z,94555.47
2022-09-28T06:48:38.892Z,94526.28
2022-09-28T06:51:07.432Z,94581.50
2022-09-28T06:53:35.895Z,94533.59
2022-09-28T06:56:07.062Z,94582.66
2022-09-28T06:58:35.363Z,94583.22
2022-09-28T07:01:04.169Z,94411.06
2022-09-28T07:03:32.573Z,94583.00
2022-09-28T07:06:00.924Z,94527.13
2022-09-28T07:08:29.308Z,94581.22
2022-09-28T07:10:57.583Z,94583.47
2022-09-28T07:13:48.561Z,94569.81
2022-09-28T07:16:19.720Z,94571.69
2022-09-28T07:18:51.121Z,94470.00
2022-09-28T07:21:27.556Z,94564.97
2022-09-28T07:23:57.744Z,94554.13
2022-09-28T07:26:26.241Z,94565.69
2022-09-28T07:28:56.273Z,94565.28
2022-09-28T07:31:26.411Z,94568.06
2022-09-28T07:33:56.517Z,94571.69
2022-09-28T07:36:24.862Z,94547.91
2022-09-28T07:38:53.156Z,94527.72
2022-09-28T07:41:32.359Z,94569.53
2022-09-28T07:44:06.309Z,94495.41
2022-09-28T07:46:35.038Z,94553.69
2022-09-28T07:49:08.430Z,94556.81
2022-09-28T07:51:39.936Z,94492.69
2022-09-28T07:54:08.304Z,94570.19
2022-09-28T07:56:36.569Z,94573.88
2022-09-28T07:59:06.196Z,94568.78
2022-09-28T08:01:34.529Z,94566.91
2022-09-28T08:04:03.667Z,94568.97
2022-09-28T08:06:32.092Z,94489.25
2022-09-28T08:09:01.923Z,94565.53
2022-09-28T08:11:30.757Z,94573.47
2022-09-28T08:14:00.437Z,94572.00
2022-09-28T08:16:30.431Z,94579.31
2022-09-28T08:18:58.749Z,94577.53
2022-09-28T08:21:44.337Z,94564.38
2022-09-28T08:24:13.059Z,94563.53
2022-09-28T08:26:41.401Z,94575.00
2022-09-28T08:29:09.872Z,94559.22
2022-09-28T08:31:39.505Z,94563.06
2022-09-28T08:34:08.062Z,94563.13
2022-09-28T08:36:36.253Z,94560.19
2022-09-28T08:39:04.568Z,94564.50
2022-09-28T08:41:41.981Z,94536.03
2022-09-28T08:44:16.088Z,94546.16
2022-09-28T08:46:49.597Z,94544.97
2022-09-28T08:49:30.901Z,94543.78
2022-09-28T08:52:04.609Z,94411.78
2022-09-28T08:54:41.917Z,94547.75
2022-09-28T08:57:16.848Z,94542.72
2022-09-28T08:59:52.590Z,94545.75
2022-09-28T09:02:27.220Z,94545.72
2022-09-28T09:04:57.117Z,94532.75
2022-09-28T09:07:57.696Z,94470.16
2022-09-28T09:10:46.892Z,94523.03
2022-09-28T09:13:43.363Z,94510.22
2022-09-28T09:16:21.969Z,94504.25
2022-09-28T09:19:00.092Z,94513.84
2022-09-28T09:21:41.104Z,94514.84
2022-09-28T09:24:27.370Z,94518.56
2022-09-28T09:27:07.391Z,94465.38
2022-09-28T09:29:52.412Z,94518.72
2022-09-28T09:32:35.696Z,94518.00
2022-09-28T09:35:43.910Z,94502.69
2022-09-28T09:38:28.672Z,94491.66
2022-09-28T09:41:08.622Z,94495.00
2022-09-28T09:44:10.493Z,94496.66
2022-09-28T09:46:44.089Z,94504.69
2022-09-28T09:49:19.033Z,94496.06
2022-09-28T09:51:54.796Z,94498.97
2022-09-28T09:54:28.907Z,94504.69
2022-09-28T09:57:03.770Z,94497.78
2022-09-28T09:59:35.413Z,94460.16
2022-09-28T10:02:11.928Z,94496.53
2022-09-28T10:04:44.756Z,94475.06
2022-09-28T10:07:21.980Z,94478.88
2022-09-28T10:09:52.080Z,94486.25
2022-09-28T10:12:23.366Z,94484.22
2022-09-28T10:14:51.659Z,94479.09
2022-09-28T10:17:26.900Z,94475.78
2022-09-28T10:19:57.080Z,94470.50
2022-09-28T10:22:28.769Z,94464.50
2022-09-28T10:24:58.839Z,94454.16
2022-09-28T10:27:30.982Z,94456.59
2022-09-28T10:30:03.444Z,94444.72
2022-09-28T10:32:40.039Z,94448.97
2022-09-28T10:35:22.905Z,94341.22
2022-09-28T10:37:59.425Z,94443.41
2022-09-28T10:40:32.964Z,94440.63
2022-09-28T10:43:03.147Z,94430.63
2022-09-28T10:45:37.353Z,94414.09
2022-09-28T10:48:15.422Z,94421.00
2022-09-28T10:50:44.363Z,94422.56
2022-09-28T10:53:20.654Z,94422.66
2022-09-28T10:56:00.709Z,94415.94
2022-09-28T10:58:32.295Z,94414.13
2022-09-28T11:01:09.287Z,94414.94
2022-09-28T11:03:50.315Z,94403.13
2022-09-28T11:06:26.124Z,94400.50
2022-09-28T11:08:58.458Z,94399.88
2022-09-28T11:11:27.270Z,94385.88
2022-09-28T11:14:00.596Z,94400.00
2022-09-28T11:16:30.942Z,94397.75
2022-09-28T11:19:00.987Z,94392.63
2022-09-28T11:21:32.891Z,94378.63
2022-09-28T11:24:07.480Z,94334.13
2022-09-28T11:26:42.540Z,94384.19
2022-09-28T11:29:23.551Z,94390.63
2022-09-28T11:31:52.794Z,94369.28
2022-09-28T11:34:41.490Z,94373.50
2022-09-28T11:37:43.239Z,94377.16
2022-09-28T11:40:29.060Z,94383.28
2022-09-28T11:43:10.068Z,94375.38
2022-09-28T11:45:52.769Z,94322.78
2022-09-28T11:48:27.412Z,94332.88
2022-09-28T11:51:01.227Z,94369.47
2022-09-28T11:53:36.046Z,94363.81
2022-09-28T11:56:15.652Z,94365.50
2022-09-28T11:58:48.308Z,94362.94
2022-09-28T12:01:25.673Z,94360.47
2022-09-28T12:03:59.792Z,94322.00
2022-09-28T12:06:36.165Z,94372.53
2022-09-28T12:09:12.189Z,94370.75
2022-09-28T12:11:45.548Z,94251.94
2022-09-28T12:14:21.458Z,94362.09
2022-09-28T12:17:10.981Z,94361.44
2022-09-28T12:19:45.033Z,94365.44
2022-09-28T12:22:20.724Z,94369.34
2022-09-28T12:24:52.261Z,94355.03
2022-09-28T12:27:31.462Z,94356.56
2022-09-28T12:30:05.710Z,94346.94
2022-09-28T12:32:40.473Z,94363.06
2022-09-28T12:35:28.890Z,94369.97
2022-09-28T12:38:17.092Z,94364.44
2022-09-28T12:40:58.644Z,94356.25
2022-09-28T12:43:55.217Z,94374.22
2022-09-28T12:46:48.950Z,94314.88
2022-09-28T12:50:33.282Z,94380.06
2022-09-28T12:52:34.326Z,94375.81
2022-09-28T12:55:28.844Z,94373.00
2022-09-28T12:58:04.499Z,94376.34
2022-09-28T13:00:43.100Z,94335.28
2022-09-28T13:03:45.941Z,94323.91
2022-09-28T13:06:46.814Z,94362.75
2022-09-28T13:09:21.901Z,94371.13
2022-09-28T13:12:02.552Z,94369.56
2022-09-28T13:14:53.251Z,94356.44
2022-09-28T13:17:34.107Z,94329.09
2022-09-28T13:20:13.206Z,94368.41
2022-09-28T13:22:55.233Z,94376.22
2022-09-28T13:25:28.727Z,94371.88
2022-09-28T13:28:01.087Z,94378.91
2022-09-28T13:30:30.058Z,94367.22
2022-09-28T13:33:02.458Z,94368.97
2022-09-28T13:35:31.580Z,94378.00
2022-09-28T13:38:44.950Z,94382.41
2022-09-28T13:41:18.005Z,94381.19
2022-09-28T13:44:23.908Z,94397.78
2022-09-28T13:47:10.256Z,94370.00
2022-09-28T13:49:52.195Z,94323.81
2022-09-28T13:52:33.003Z,94248.63
2022-09-28T13:55:20.147Z,94328.00
2022-09-28T13:57:55.249Z,94376.13
2022-09-28T14:00:29.111Z,94371.94
2022-09-28T14:03:01.702Z,94370.81
2022-09-28T14:06:07.273Z,94370.94
2022-09-28T14:08:39.762Z,94361.94
2022-09-28T14:11:42.065Z,94375.22
2022-09-28T14:14:50.283Z,94325.31
2022-09-28T14:17:55.125Z,94368.38
2022-09-28T14:20:27.439Z,94364.78
2022-09-28T14:23:21.089Z,94359.28
2022-09-28T14:26:07.227Z,94367.81
2022-09-28T14:28:50.411Z,94371.47
2022-09-28T14:31:26.417Z,94370.88
2022-09-28T14:34:00.140Z,94373.66
2022-09-28T14:36:51.134Z,94366.91
2022-09-28T14:39:46.380Z,94364.38
2022-09-28T14:42:18.854Z,94374.53
2022-09-28T14:45:34.914Z,94365.91
2022-09-28T14:48:42.507Z,94367.19
2022-09-28T14:51:45.664Z,94378.41
2022-09-28T14:54:20.631Z,94363.47
2022-09-28T14:56:59.889Z,94379.81
2022-09-28T14:59:31.016Z,94374.38
2022-09-28T15:02:02.442Z,94374.91
2022-09-28T15:04:32.027Z,94382.66
2022-09-28T15:07:00.377Z,94380.38
2022-09-28T15:09:29.214Z,94389.72
2022-09-28T15:12:02.550Z,94387.78
2022-09-28T15:14:33.070Z,94355.38
2022-09-28T15:17:08.984Z,94402.56
2022-09-28T15:19:45.718Z,94403.63
2022-09-28T15:22:17.712Z,94338.91
2022-09-28T15:24:48.542Z,94403.78
2022-09-28T15:27:19.302Z,94405.00
2022-09-28T15:29:57.758Z,94384.16
2022-09-28T15:32:26.686Z,94412.84
2022-09-28T15:34:57.539Z,94419.91
2022-09-28T15:37:29.096Z,94421.22
2022-09-28T15:39:59.656Z,94430.84
2022-09-28T15:42:31.273Z,94427.56
2022-09-28T15:45:27.898Z,94427.00
2022-09-28T15:48:20.843Z,94409.44
2022-09-28T15:51:05.176Z,94429.88
2022-09-28T15:53:34.516Z,94433.38
2022-09-28T15:56:10.205Z,94425.66
2022-09-28T15:58:40.544Z,94432.53
2022-09-28T16:01:36.191Z,94436.03
2022-09-28T16:04:39.821Z,94432.69
2022-09-28T16:07:25.097Z,94428.56
2022-09-28T16:10:01.442Z,94436.06
2022-09-28T16:12:41.757Z,94388.72
2022-09-28T16:15:20.497Z,94442.69
2022-09-28T16:17:55.746Z,94387.25
2022-09-28T16:20:29.616Z,94441.09
2022-09-28T16:23:05.734Z,94441.94
2022-09-28T16:25:37.300Z,94444.56
2022-09-28T16:28:07.568Z,94422.69
2022-09-28T16:30:37.298Z,94427.31
2022-09-28T16:33:08.138Z,94428.59
2022-09-28T16:35:52.076Z,94424.91
2022-09-28T16:38:21.300Z,94368.19
2022-09-28T16:40:53.974Z,94412.69
2022-09-28T16:43:26.972Z,94434.78
2022-09-28T16:45:58.486Z,94426.56
2022-09-28T16:48:29.103Z,94409.69
2022-09-28T16:50:57.765Z,94435.41
2022-09-28T16:53:44.303Z,94448.63
2022-09-28T16:56:14.040Z,94439.47
2022-09-28T16:58:42.630Z,94443.47
2022-09-28T17:01:13.706Z,94438.19
2022-09-28T17:03:46.886Z,94417.06
2022-09-28T17:06:16.714Z,94456.03
2022-09-28T17:08:45.382Z,94453.84
2022-09-28T17:11:20.478Z,94465.38
2022-09-28T17:13:52.250Z,94465.00
2022-09-28T17:16:49.292Z,94428.22
2022-09-28T17:19:20.150Z,94468.72
2022-09-28T17:21:49.500Z,94459.81
2022-09-28T17:24:17.764Z,94466.53
2022-09-28T17:26:47.040Z,94469.72
2022-09-28T17:29:16.587Z,94471.56
2022-09-28T17:31:47.876Z,94456.50
2022-09-28T17:34:17.369Z,94477.00
2022-09-28T17:36:46.757Z,94482.13
2022-09-28T17:39:16.794Z,94481.84
2022-09-28T17:41:45.347Z,94399.88
2022-09-28T17:44:16.373Z,94502.09
2022-09-28T17:46:49.231Z,94499.34
2022-09-28T17:49:18.365Z,94502.56
2022-09-28T17:51:46.845Z,94504.09
2022-09-28T17:54:17.016Z,94351.09
2022-09-28T17:56:46.252Z,94492.44
2022-09-28T17:59:17.482Z,94513.34
2022-09-28T18:01:48.492Z,94503.56
2022-09-28T18:04:39.790Z,94509.50
2022-09-28T18:07:05.637Z,94510.41
2022-09-28T18:09:33.958Z,94509.72
2022-09-28T18:12:06.459Z,94511.47
2022-09-28T18:14:35.894Z,94517.88
2022-09-28T18:17:05.957Z,94517.56
2022-09-28T18:19:34.216Z,94519.09
2022-09-28T18:22:02.550Z,94531.28
2022-09-28T18:24:32.628Z,94532.75
2022-09-28T18:27:01.149Z,94543.78
2022-09-28T18:29:33.046Z,94530.91
2022-09-28T18:32:02.104Z,94542.19
2022-09-28T18:34:31.816Z,94542.13
2022-09-28T18:37:00.104Z,94540.59
2022-09-28T18:39:28.528Z,94535.06
2022-09-28T18:41:56.828Z,94535.41
2022-09-28T18:44:25.141Z,94540.16
2022-09-28T18:46:53.442Z,94529.16
2022-09-28T18:49:21.759Z,94518.63
2022-09-28T18:51:51.612Z,94534.47
2022-09-28T18:54:20.070Z,94547.06
2022-09-28T18:56:49.925Z,94545.69
2022-09-28T18:59:18.648Z,94525.38
2022-09-28T19:01:47.077Z,94544.56
2022-09-28T19:04:15.422Z,94389.78
2022-09-28T19:06:44.896Z,94546.69
2022-09-28T19:09:15.057Z,94528.22
2022-09-28T19:11:44.297Z,94525.34
2022-09-28T19:14:15.369Z,94553.25
2022-09-28T19:16:44.664Z,94558.94
2022-09-28T19:19:14.612Z,94565.91
2022-09-28T20:48:29.845Z,94592.22
2022-09-28T20:51:03.116Z,94598.19
2022-09-28T20:53:31.504Z,94599.31
2022-09-28T20:56:01.284Z,94600.97
2022-09-28T20:58:30.151Z,94595.66
2022-09-28T21:01:08.088Z,94609.38
2022-09-28T21:03:38.706Z,94537.50
2022-09-28T21:06:12.140Z,94599.34
2022-09-28T21:08:40.704Z,94594.56
2022-09-28T21:11:09.019Z,94588.22
2022-09-28T21:13:37.251Z,94598.34
2022-09-28T21:16:06.388Z,94603.03
2022-09-28T21:18:34.772Z,94595.59
2022-09-28T21:21:07.171Z,94608.16
2022-09-28T21:23:36.119Z,94608.31
2022-09-28T21:26:06.834Z,94593.53
2022-09-28T21:28:35.810Z,94452.59
2022-09-28T21:31:05.851Z,94605.88
2022-09-28T21:33:34.471Z,94603.81
2022-09-28T21:36:05.346Z,94604.09
2022-09-28T21:38:34.093Z,94552.72
2022-09-28T21:41:02.736Z,94561.59
2022-09-28T21:43:32.487Z,94608.00
2022-09-28T21:46:00.770Z,94603.78
2022-09-28T21:48:30.493Z,94588.84
2022-09-28T21:51:00.123Z,94598.09
2022-09-28T21:53:31.871Z,94596.63
2022-09-28T21:56:01.083Z,94604.25
2022-09-28T21:58:31.467Z,94595.75
2022-09-28T22:01:03.105Z,94604.72
2022-09-28T22:03:32.701Z,94562.13
2022-09-28T22:06:01.151Z,94604.13
2022-09-28T22:08:31.432Z,94550.03
2022-09-28T22:11:01.801Z,94600.47
2022-09-28T22:13:30.492Z,94617.31
2022-09-28T22:15:59.363Z,94614.75
2022-09-28T22:18:28.913Z,94603.91
2022-09-28T22:21:01.372Z,94613.13
2022-09-28T22:23:31.548Z,94604.38
2022-09-28T22:26:01.203Z,94610.19
2022-09-28T22:28:29.989Z,94618.47
2022-09-28T22:30:58.852Z,94612.00
2022-09-28T22:33:27.443Z,94616.78
2022-09-28T22:35:56.458Z,94590.69
2022-09-28T22:38:26.116Z,94603.63
2022-09-28T22:40:58.439Z,94620.25
2022-09-28T22:43:28.480Z,94551.88
2022-09-28T22:46:03.422Z,94611.66
2022-09-28T22:48:31.867Z,94614.91
2022-09-28T22:51:00.557Z,94627.28
2022-09-28T22:53:29.665Z,94632.34
2022-09-28T22:56:01.538Z,94613.97
2022-09-28T22:58:29.820Z,94622.03
2022-09-28T23:00:58.251Z,94621.81
2022-09-28T23:03:26.560Z,94624.09
2022-09-28T23:05:55.436Z,94602.16
2022-09-28T23:08:24.720Z,94621.13
2022-09-28T23:10:53.192Z,94575.25
2022-09-28T23:13:22.832Z,94610.06
2022-09-28T23:15:58.314Z,94604.59
2022-09-28T23:18:29.118Z,94613.19
2022-09-28T23:20:58.269Z,94606.25
2022-09-28T23:23:26.900Z,94606.50
2022-09-28T23:25:55.792Z,94606.72
2022-09-28T23:28:27.352Z,94603.69
2022-09-28T23:30:55.676Z,94606.16
2022-09-28T23:33:23.990Z,94589.13
2022-09-28T23:35:52.229Z,94590.13
2022-09-28T23:38:20.463Z,94586.41
2022-09-28T23:40:49.254Z,94594.81
2022-09-28T23:43:17.511Z,94585.19
2022-09-28T23:45:47.444Z,94589.97
2022-09-28T23:48:15.779Z,94595.75
2022-09-28T23:50:44.757Z,94599.84
2022-09-28T23:53:14.919Z,94591.28
2022-09-28T23:55:44.247Z,94592.59
2022-09-28T23:58:13.131Z,94580.97
